Time;durP1;ratioP1;P1;durP2;ratioP2;P2;SDS_P1;SDS_P2;PMS_P1;PMS_P2;Temp;Humidity;BMP_temperature;BMP_pressure;BME280_temperature;BME280_humidity;BME280_pressure;Samples;Min_cycle;Max_cycle;Signal;HPM_P1;HPM_P2
2022/06/11 00:00:56;;;;;;;3.40;1.75;;;18.30;99.90;;;;;;5042626;28;20056;-47
2022/06/11 00:03:22;;;;;;;2.80;1.50;;;18.30;99.90;;;;;;5040429;28;20045;-46
2022/06/11 00:05:49;;;;;;;3.88;1.27;;;18.30;99.90;;;;;;5022710;28;20040;-45
2022/06/11 00:08:16;;;;;;;2.53;1.30;;;18.30;99.90;;;;;;5039065;28;20033;-47
2022/06/11 00:10:42;;;;;;;4.70;1.13;;;18.30;99.90;;;;;;5043332;28;20032;-45
2022/06/11 00:13:08;;;;;;;2.80;1.42;;;18.20;99.90;;;;;;5019962;28;20033;-44
2022/06/11 00:15:35;;;;;;;3.05;1.65;;;18.20;99.90;;;;;;5016008;28;20041;-44
2022/06/11 00:18:01;;;;;;;4.20;1.20;;;18.20;99.90;;;;;;5040490;28;20067;-45
2022/06/11 00:20:28;;;;;;;2.47;0.95;;;18.20;99.90;;;;;;5038212;28;20041;-45
2022/06/11 00:22:53;;;;;;;3.40;1.00;;;18.10;99.90;;;;;;5041067;28;20055;-45
2022/06/11 00:25:20;;;;;;;4.70;1.73;;;18.10;99.90;;;;;;5045712;28;20383;-46
2022/06/11 00:27:47;;;;;;;3.13;1.58;;;18.10;99.90;;;;;;5034123;28;20399;-45
2022/06/11 00:30:15;;;;;;;4.43;1.98;;;18.10;99.90;;;;;;5045888;28;20039;-43
2022/06/11 00:32:41;;;;;;;3.47;1.40;;;18.00;99.90;;;;;;5042170;28;20079;-46
2022/06/11 00:35:09;;;;;;;4.13;1.63;;;18.00;99.90;;;;;;5039298;28;20124;-46
2022/06/11 00:37:35;;;;;;;3.35;1.50;;;18.00;99.90;;;;;;5042887;28;20174;-44
2022/06/11 00:40:03;;;;;;;2.45;1.42;;;18.00;99.90;;;;;;5041779;28;20083;-46
2022/06/11 00:42:32;;;;;;;3.33;1.30;;;18.00;99.90;;;;;;5037192;28;20146;-47
2022/06/11 00:45:33;;;;;;;2.83;0.90;;;18.00;99.90;;;;;;5038762;28;20034;-44
2022/06/11 00:48:16;;;;;;;3.95;2.33;;;18.00;99.90;;;;;;5035525;28;20052;-48
2022/06/11 00:50:47;;;;;;;;;;;18.00;99.90;;;;;;5044014;28;20395;-44
2022/06/11 00:53:40;;;;;;;3.75;1.30;;;17.90;99.90;;;;;;5037473;28;20317;-44
2022/06/11 00:56:12;;;;;;;4.60;1.75;;;17.90;99.90;;;;;;5039319;28;20542;-44
2022/06/11 00:58:40;;;;;;;4.32;1.70;;;17.90;99.90;;;;;;5033586;28;20561;-44
2022/06/11 01:01:06;;;;;;;3.72;1.30;;;17.80;99.90;;;;;;5040578;28;20278;-45
2022/06/11 01:03:37;;;;;;;3.53;1.83;;;17.80;99.90;;;;;;5040259;28;20037;-43
2022/06/11 01:06:30;;;;;;;3.33;1.10;;;17.80;99.90;;;;;;5042492;28;20037;-46
2022/06/11 01:09:10;;;;;;;2.55;1.05;;;17.80;99.90;;;;;;5030750;28;20049;-44
2022/06/11 01:11:48;;;;;;;2.67;1.08;;;17.80;99.90;;;;;;5037324;28;20045;-42
2022/06/11 01:14:25;;;;;;;3.10;1.63;;;17.70;99.90;;;;;;5035653;28;20048;-44
2022/06/11 01:17:12;;;;;;;2.30;1.30;;;17.60;99.90;;;;;;5036676;28;20044;-44
2022/06/11 01:20:03;;;;;;;3.45;1.67;;;17.60;99.90;;;;;;5033527;28;20120;-42
2022/06/11 01:22:38;;;;;;;3.45;1.73;;;17.60;99.90;;;;;;5041734;28;20033;-43
2022/06/11 01:25:27;;;;;;;3.70;1.58;;;17.50;99.90;;;;;;5041068;28;20045;-42
2022/06/11 01:28:08;;;;;;;2.63;1.05;;;17.50;99.90;;;;;;5036317;28;20046;-42
2022/06/11 01:30:45;;;;;;;2.70;1.52;;;17.50;99.90;;;;;;5034354;28;20039;-42
2022/06/11 01:33:32;;;;;;;5.78;2.35;;;17.40;99.90;;;;;;5035905;28;20530;-42
2022/06/11 01:36:11;;;;;;;3.50;1.45;;;17.40;99.90;;;;;;5032655;28;20052;-42
2022/06/11 01:39:10;;;;;;;2.72;1.48;;;17.40;99.90;;;;;;5032221;28;20058;-42
2022/06/11 01:41:41;;;;;;;4.47;2.00;;;17.30;99.90;;;;;;5034615;28;20081;-43
2022/06/11 01:44:10;;;;;;;3.13;1.42;;;17.30;99.90;;;;;;5038886;28;20076;-43
2022/06/11 01:46:41;;;;;;;5.20;1.63;;;17.20;99.90;;;;;;5031590;28;20045;-42
2022/06/11 01:49:41;;;;;;;5.18;2.25;;;17.20;99.90;;;;;;5029038;28;20053;-43
2022/06/11 01:52:35;;;;;;;5.40;1.85;;;17.20;99.90;;;;;;5002872;28;20157;-43
2022/06/11 01:55:19;;;;;;;4.03;1.98;;;17.10;99.90;;;;;;5032324;28;20111;-42
2022/06/11 01:57:48;;;;;;;6.47;1.73;;;17.10;99.90;;;;;;5028284;28;20045;-42
2022/06/11 02:00:24;;;;;;;4.03;1.63;;;17.00;99.90;;;;;;5032502;28;20476;-43
2022/06/11 02:03:02;;;;;;;4.95;1.48;;;17.00;99.90;;;;;;5015649;28;20088;-43
2022/06/11 02:05:27;;;;;;;5.93;1.58;;;16.90;99.90;;;;;;5037788;28;20479;-42
2022/06/11 02:07:59;;;;;;;6.28;1.60;;;16.90;99.90;;;;;;5036038;28;20056;-43
2022/06/11 02:10:54;;;;;;;4.13;1.35;;;16.90;99.90;;;;;;5014153;28;20580;-42
2022/06/11 02:13:29;;;;;;;7.25;1.52;;;16.80;99.90;;;;;;5039548;28;20045;-43
2022/06/11 02:16:12;;;;;;;4.85;1.30;;;16.80;99.90;;;;;;5040007;28;20045;-42
2022/06/11 02:18:40;;;;;;;6.72;1.33;;;16.70;99.90;;;;;;5044137;28;20095;-43
2022/06/11 02:21:13;;;;;;;6.05;1.33;;;16.70;99.90;;;;;;5038721;28;20037;-43
2022/06/11 02:24:07;;;;;;;5.95;1.13;;;16.70;99.90;;;;;;5038708;28;20423;-43
2022/06/11 02:26:37;;;;;;;3.33;0.93;;;16.60;99.90;;;;;;5037670;28;20100;-43
2022/06/11 02:29:05;;;;;;;5.43;0.88;;;16.60;99.90;;;;;;5044396;28;20094;-43
2022/06/11 02:31:38;;;;;;;5.07;1.35;;;16.50;99.90;;;;;;5036756;28;20759;-43
2022/06/11 02:34:06;;;;;;;5.78;0.98;;;16.50;99.90;;;;;;5037597;28;20072;-42
2022/06/11 02:36:44;;;;;;;3.63;1.00;;;16.40;99.90;;;;;;5036813;28;20033;-44
2022/06/11 02:39:10;;;;;;;5.82;0.98;;;16.40;99.90;;;;;;5039272;28;20045;-42
2022/06/11 02:41:35;;;;;;;4.85;1.02;;;16.40;99.90;;;;;;5047386;28;20040;-42
2022/06/11 02:44:02;;;;;;;4.75;1.10;;;16.30;99.90;;;;;;5040655;28;20541;-42
2022/06/11 02:46:43;;;;;;;3.17;0.73;;;16.30;99.90;;;;;;5040746;28;20037;-42
2022/06/11 02:49:14;;;;;;;7.25;1.20;;;16.30;99.90;;;;;;5039075;28;20041;-42
2022/06/11 02:51:40;;;;;;;5.07;1.00;;;16.20;99.90;;;;;;5040420;28;20045;-42
2022/06/11 02:54:06;;;;;;;3.58;0.90;;;16.20;99.90;;;;;;5039406;28;20037;-45
2022/06/11 02:56:32;;;;;;;5.43;1.00;;;16.10;99.90;;;;;;5038976;28;20055;-43
2022/06/11 02:58:58;;;;;;;5.90;1.20;;;16.10;99.90;;;;;;5037595;28;20041;-44
2022/06/11 03:01:25;;;;;;;3.38;0.82;;;16.00;99.90;;;;;;5043183;28;20045;-42
2022/06/11 03:03:51;;;;;;;5.95;1.00;;;16.00;99.90;;;;;;5040789;28;20038;-42
2022/06/11 03:06:19;;;;;;;5.50;1.25;;;15.90;99.90;;;;;;5039042;28;20072;-42
2022/06/11 03:08:46;;;;;;;5.70;1.35;;;15.90;99.90;;;;;;5038201;28;20041;-43
2022/06/11 03:11:12;;;;;;;5.60;1.02;;;15.90;99.90;;;;;;5039688;28;20074;-41
2022/06/11 03:13:38;;;;;;;4.10;0.70;;;15.80;99.90;;;;;;5038374;28;20045;-42
2022/06/11 03:16:05;;;;;;;4.28;0.70;;;15.80;99.90;;;;;;5036060;28;20112;-43
2022/06/11 03:18:31;;;;;;;4.63;0.80;;;15.70;99.90;;;;;;5043549;28;20079;-43
2022/06/11 03:20:57;;;;;;;6.03;1.02;;;15.70;99.90;;;;;;5042242;28;20045;-44
2022/06/11 03:23:23;;;;;;;3.95;0.80;;;15.70;99.90;;;;;;5040099;28;20110;-43
2022/06/11 03:25:49;;;;;;;5.60;1.13;;;15.60;99.90;;;;;;5040702;28;20168;-42
2022/06/11 03:28:22;;;;;;;6.47;1.00;;;15.60;99.90;;;;;;5046185;28;20041;-45
2022/06/11 03:30:49;;;;;;;4.07;0.65;;;15.60;99.90;;;;;;5036770;28;20092;-43
2022/06/11 03:33:15;;;;;;;5.38;1.00;;;15.60;99.90;;;;;;5039011;28;20456;-43
2022/06/11 03:35:43;;;;;;;5.28;0.82;;;15.50;99.90;;;;;;5040543;28;20041;-43
2022/06/11 03:38:10;;;;;;;5.50;0.85;;;15.50;99.90;;;;;;5037172;28;20033;-42
2022/06/11 03:40:36;;;;;;;3.88;0.63;;;15.50;99.90;;;;;;5042295;28;20053;-43
2022/06/11 03:43:02;;;;;;;5.63;0.80;;;15.50;99.90;;;;;;5041271;28;20644;-43
2022/06/11 03:45:30;;;;;;;3.25;0.70;;;15.40;99.90;;;;;;5034310;28;20037;-47
2022/06/11 03:47:55;;;;;;;3.80;0.80;;;15.50;99.90;;;;;;5038142;28;20052;-47
2022/06/11 03:50:26;;;;;;;5.72;0.73;;;15.40;99.90;;;;;;5022291;28;20041;-46
2022/06/11 03:52:52;;;;;;;4.65;0.80;;;15.40;99.90;;;;;;5035338;28;20051;-46
2022/06/11 03:55:18;;;;;;;6.47;1.20;;;15.40;99.90;;;;;;5035939;28;20044;-46
2022/06/11 03:57:44;;;;;;;4.43;0.70;;;15.40;99.90;;;;;;5040199;28;20044;-46
2022/06/11 04:00:15;;;;;;;3.75;0.73;;;15.40;99.90;;;;;;5038901;28;20053;-47
2022/06/11 04:02:42;;;;;;;5.18;0.95;;;15.40;99.90;;;;;;5017061;28;20052;-46
2022/06/11 04:05:09;;;;;;;5.75;0.80;;;15.30;99.90;;;;;;5035801;28;20037;-49
2022/06/11 04:07:35;;;;;;;3.95;0.90;;;15.30;99.90;;;;;;5040748;28;20164;-48
2022/06/11 04:10:01;;;;;;;4.18;0.85;;;15.30;99.90;;;;;;5037655;28;20127;-46
2022/06/11 04:12:27;;;;;;;6.95;1.23;;;15.30;99.90;;;;;;5039064;28;20553;-47
2022/06/11 04:14:52;;;;;;;4.65;0.60;;;15.30;99.90;;;;;;5039832;28;20503;-48
2022/06/11 04:17:29;;;;;;;4.78;1.10;;;15.30;99.90;;;;;;5022829;28;20037;-46
2022/06/11 04:19:55;;;;;;;5.28;0.75;;;15.30;99.90;;;;;;5036965;28;20498;-46
2022/06/11 04:22:21;;;;;;;4.47;0.80;;;15.30;99.90;;;;;;5040834;28;20059;-47
2022/06/11 04:24:48;;;;;;;5.30;0.95;;;15.30;99.90;;;;;;5031742;28;20038;-49
2022/06/11 04:27:15;;;;;;;5.45;0.90;;;15.30;99.90;;;;;;5035067;28;20132;-47
2022/06/11 04:29:46;;;;;;;6.82;0.90;;;15.30;99.90;;;;;;5040718;28;20033;-47
2022/06/11 04:32:15;;;;;;;4.60;0.65;;;15.30;99.90;;;;;;5037046;28;20131;-45
2022/06/11 04:34:43;;;;;;;4.63;0.95;;;15.30;99.90;;;;;;5032754;28;20400;-46
2022/06/11 04:37:13;;;;;;;5.95;1.00;;;15.40;99.90;;;;;;5042171;28;20083;-48
2022/06/11 04:39:44;;;;;;;5.03;1.00;;;15.40;99.90;;;;;;5035960;28;20122;-46
2022/06/11 04:42:12;;;;;;;5.47;0.98;;;15.40;99.90;;;;;;5038451;28;20506;-46
2022/06/11 04:44:39;;;;;;;4.30;0.90;;;15.40;99.90;;;;;;5037369;28;20037;-47
2022/06/11 04:47:05;;;;;;;6.18;1.55;;;15.40;99.90;;;;;;5037322;28;20491;-47
2022/06/11 04:49:31;;;;;;;5.60;1.35;;;15.50;99.90;;;;;;5038445;28;20450;-46
2022/06/11 04:51:56;;;;;;;5.53;1.17;;;15.50;99.90;;;;;;5039408;28;20037;-47
2022/06/11 04:54:22;;;;;;;6.32;1.35;;;15.50;99.90;;;;;;5034116;28;20063;-47
2022/06/11 04:56:48;;;;;;;5.75;1.08;;;15.50;99.90;;;;;;5038530;28;20588;-46
2022/06/11 04:59:14;;;;;;;5.53;0.98;;;15.50;99.90;;;;;;5036046;28;20048;-47
2022/06/11 05:01:41;;;;;;;7.32;1.73;;;15.60;99.90;;;;;;5033483;28;20033;-47
2022/06/11 05:04:08;;;;;;;7.97;1.13;;;15.60;99.90;;;;;;5033638;28;20041;-46
2022/06/11 05:06:39;;;;;;;5.70;1.20;;;15.60;99.90;;;;;;5037622;28;20041;-46
2022/06/11 05:09:10;;;;;;;8.15;1.45;;;15.60;99.90;;;;;;5038389;28;20036;-45
2022/06/11 05:11:37;;;;;;;8.15;1.25;;;15.60;99.90;;;;;;5037589;28;20149;-46
2022/06/11 05:14:03;;;;;;;7.55;1.27;;;15.70;99.90;;;;;;5033477;28;20048;-45
2022/06/11 05:16:30;;;;;;;8.35;1.50;;;15.70;99.90;;;;;;5040795;28;20034;-48
2022/06/11 05:18:56;;;;;;;8.50;1.35;;;15.80;99.90;;;;;;5038328;28;20060;-46
2022/06/11 05:21:23;;;;;;;7.35;1.42;;;16.30;99.90;;;;;;5035138;28;20142;-49
2022/06/11 05:23:49;;;;;;;8.80;1.48;;;17.20;99.90;;;;;;5036733;28;20053;-47
2022/06/11 05:26:22;;;;;;;7.45;1.38;;;18.30;99.90;;;;;;5035454;28;20037;-46
2022/06/11 05:28:50;;;;;;;6.93;1.40;;;19.10;99.90;;;;;;5042225;28;20075;-45
2022/06/11 05:31:16;;;;;;;8.10;1.15;;;19.20;99.90;;;;;;5035577;28;20029;-47
2022/06/11 05:33:42;;;;;;;7.05;1.13;;;19.00;99.90;;;;;;5032607;28;20041;-46
2022/06/11 05:36:09;;;;;;;8.00;1.45;;;18.90;99.90;;;;;;5024826;28;20037;-46
2022/06/11 05:38:35;;;;;;;7.93;1.17;;;18.70;99.90;;;;;;5036792;28;20068;-47
2022/06/11 05:41:01;;;;;;;8.25;1.20;;;18.60;99.90;;;;;;5037669;28;20050;-46
2022/06/11 05:43:27;;;;;;;7.30;1.48;;;18.60;99.90;;;;;;5034218;28;20045;-47
2022/06/11 05:45:57;;;;;;;8.63;1.90;;;18.50;99.90;;;;;;5039094;28;20052;-46
2022/06/11 05:48:27;;;;;;;8.95;1.67;;;18.40;99.90;;;;;;5033804;28;20506;-46
2022/06/11 05:50:55;;;;;;;11.25;2.10;;;18.30;99.90;;;;;;5037927;28;20053;-43
2022/06/11 05:53:24;;;;;;;8.88;1.63;;;18.30;99.90;;;;;;5037543;28;20063;-43
2022/06/11 05:55:51;;;;;;;10.60;1.95;;;18.20;99.90;;;;;;5030066;28;20395;-44
2022/06/11 05:58:23;;;;;;;10.70;1.90;;;18.20;99.90;;;;;;5038182;28;20102;-45
2022/06/11 06:00:48;;;;;;;9.57;1.67;;;18.20;99.90;;;;;;5032245;28;20041;-49
2022/06/11 06:03:14;;;;;;;11.43;1.95;;;18.20;99.90;;;;;;5033238;28;21486;-44
2022/06/11 06:05:40;;;;;;;8.43;1.40;;;18.20;99.90;;;;;;5034995;28;20103;-47
2022/06/11 06:08:07;;;;;;;10.93;2.03;;;18.10;99.90;;;;;;5036331;28;20146;-46
2022/06/11 06:10:33;;;;;;;11.07;2.15;;;18.20;99.90;;;;;;5031768;28;20373;-44
2022/06/11 06:12:59;;;;;;;11.20;1.83;;;18.20;99.90;;;;;;5039123;28;20087;-45
2022/06/11 06:15:29;;;;;;;11.40;1.95;;;18.20;99.90;;;;;;5040927;28;20549;-46
2022/06/11 06:17:55;;;;;;;12.23;2.30;;;18.20;99.90;;;;;;5026882;28;20069;-48
2022/06/11 06:20:23;;;;;;;11.75;2.03;;;18.20;99.90;;;;;;5018203;28;20045;-44
2022/06/11 06:22:49;;;;;;;12.82;2.00;;;18.20;99.90;;;;;;5038288;28;20051;-46
2022/06/11 06:25:19;;;;;;;15.35;2.45;;;18.30;99.90;;;;;;5023114;28;20083;-44
2022/06/11 06:27:45;;;;;;;13.68;2.55;;;18.30;99.90;;;;;;5038065;28;20550;-46
2022/06/11 06:30:12;;;;;;;11.88;2.38;;;18.30;99.90;;;;;;5036966;28;20148;-46
2022/06/11 06:32:38;;;;;;;15.20;2.67;;;18.40;99.90;;;;;;5034473;28;20119;-44
2022/06/11 06:35:05;;;;;;;13.25;2.97;;;18.40;99.90;;;;;;5037814;28;20092;-46
2022/06/11 06:37:33;;;;;;;13.57;2.72;;;18.40;99.90;;;;;;5034025;28;20116;-44
2022/06/11 06:39:58;;;;;;;13.48;2.58;;;18.50;99.90;;;;;;5034127;28;20052;-44
2022/06/11 06:42:24;;;;;;;16.40;2.97;;;18.50;99.90;;;;;;5038607;28;20037;-44
2022/06/11 06:44:50;;;;;;;12.60;2.40;;;18.60;99.90;;;;;;5033051;28;20479;-45
2022/06/11 06:47:15;;;;;;;15.02;3.05;;;18.60;99.90;;;;;;5043989;28;20037;-46
2022/06/11 06:49:41;;;;;;;15.10;2.90;;;18.70;99.90;;;;;;5047545;28;20102;-45
2022/06/11 06:52:07;;;;;;;15.07;2.58;;;18.70;99.90;;;;;;5049331;28;20039;-46
2022/06/11 06:54:32;;;;;;;12.63;2.45;;;18.80;99.90;;;;;;5047863;28;20418;-45
2022/06/11 06:56:58;;;;;;;16.50;3.00;;;18.80;99.90;;;;;;5029727;28;20093;-45
2022/06/11 06:59:24;;;;;;;16.63;3.08;;;18.90;99.90;;;;;;5022597;28;20787;-45
2022/06/11 07:01:50;;;;;;;17.80;2.92;;;18.90;99.90;;;;;;5019949;28;20033;-45
2022/06/11 07:04:16;;;;;;;14.25;2.78;;;19.00;99.90;;;;;;5017278;28;20480;-46
2022/06/11 07:06:42;;;;;;;15.77;3.20;;;19.00;99.90;;;;;;5028931;28;20045;-45
2022/06/11 07:09:08;;;;;;;13.75;2.92;;;19.10;99.90;;;;;;5027398;28;20120;-46
2022/06/11 07:11:34;;;;;;;17.17;3.00;;;19.10;99.90;;;;;;5026015;28;20328;-46
2022/06/11 07:14:00;;;;;;;14.57;2.60;;;19.20;99.90;;;;;;5040438;28;20084;-45
2022/06/11 07:16:34;;;;;;;16.13;3.10;;;19.20;99.90;;;;;;5036440;28;20041;-45
2022/06/11 07:19:03;;;;;;;16.58;3.35;;;19.30;99.90;;;;;;5041410;28;20061;-46
2022/06/11 07:21:36;;;;;;;15.27;3.17;;;19.30;99.90;;;;;;5037301;28;20033;-44
2022/06/11 07:24:09;;;;;;;17.10;3.22;;;19.40;99.90;;;;;;5030981;28;20073;-45
2022/06/11 07:26:41;;;;;;;15.95;3.53;;;19.50;99.90;;;;;;5032301;28;20045;-46
2022/06/11 07:29:28;;;;;;;15.32;2.88;;;19.50;99.90;;;;;;5036365;28;20618;-45
2022/06/11 07:32:00;;;;;;;14.50;2.78;;;19.60;99.90;;;;;;5047840;28;20050;-45
2022/06/11 07:34:27;;;;;;;18.52;3.22;;;19.70;99.90;;;;;;5032720;28;20057;-46
2022/06/11 07:36:53;;;;;;;16.60;3.42;;;19.80;99.90;;;;;;5031949;28;20045;-46
2022/06/11 07:39:19;;;;;;;17.92;3.22;;;19.80;99.90;;;;;;5031947;28;20065;-47
2022/06/11 07:41:45;;;;;;;15.30;3.20;;;19.90;99.90;;;;;;5030490;28;20064;-46
2022/06/11 07:44:11;;;;;;;17.95;3.13;;;19.90;99.90;;;;;;5032167;28;20119;-44
2022/06/11 07:46:36;;;;;;;16.65;3.08;;;20.00;99.90;;;;;;5014086;28;20052;-45
2022/06/11 07:49:02;;;;;;;17.02;3.40;;;20.10;99.90;;;;;;5031842;28;20289;-45
2022/06/11 07:51:28;;;;;;;17.65;3.40;;;20.20;99.90;;;;;;5013952;28;20092;-45
2022/06/11 07:53:53;;;;;;;20.65;3.67;;;20.20;99.90;;;;;;5030616;28;20045;-44
2022/06/11 07:56:19;;;;;;;20.17;3.88;;;20.30;99.90;;;;;;5014249;28;20081;-44
2022/06/11 07:58:46;;;;;;;17.52;3.15;;;20.30;99.90;;;;;;5013709;28;20049;-43
2022/06/11 08:01:12;;;;;;;18.90;3.38;;;20.40;99.90;;;;;;5031714;28;20045;-45
2022/06/11 08:03:38;;;;;;;17.55;3.38;;;20.50;99.90;;;;;;5031734;28;20041;-44
2022/06/11 08:06:06;;;;;;;16.33;3.33;;;20.50;99.90;;;;;;5031683;28;20041;-46
2022/06/11 08:08:32;;;;;;;18.73;3.55;;;20.60;99.90;;;;;;5014048;28;20107;-45
2022/06/11 08:11:00;;;;;;;17.25;3.47;;;20.70;99.90;;;;;;5031192;28;20041;-46
2022/06/11 08:13:25;;;;;;;20.17;3.90;;;20.80;99.90;;;;;;5013596;28;20085;-45
2022/06/11 08:15:53;;;;;;;18.13;3.45;;;20.90;99.90;;;;;;5029106;28;20522;-44
2022/06/11 08:18:20;;;;;;;17.42;3.45;;;20.90;99.90;;;;;;5031459;28;20053;-46
2022/06/11 08:20:46;;;;;;;18.35;3.55;;;21.10;99.90;;;;;;5030010;28;20575;-48
2022/06/11 08:23:13;;;;;;;16.17;2.80;;;21.10;99.90;;;;;;5031388;28;20046;-46
2022/06/11 08:25:39;;;;;;;15.68;3.08;;;21.20;99.90;;;;;;5029765;28;20056;-44
2022/06/11 08:28:06;;;;;;;18.95;4.00;;;21.20;99.90;;;;;;5030231;28;20049;-45
2022/06/11 08:30:33;;;;;;;18.75;3.50;;;21.30;99.90;;;;;;5031646;28;20060;-45
2022/06/11 08:32:59;;;;;;;20.15;3.75;;;21.40;99.90;;;;;;5029820;28;20434;-47
2022/06/11 08:35:27;;;;;;;16.42;3.33;;;21.50;99.90;;;;;;5029932;28;20056;-44
2022/06/11 08:37:53;;;;;;;18.80;3.85;;;21.60;99.90;;;;;;5013219;28;20049;-46
2022/06/11 08:40:53;;;;;;;16.10;3.70;;;21.70;99.90;;;;;;5013081;28;20062;-45
2022/06/11 08:43:32;;;;;;;14.05;3.10;;;21.80;99.90;;;;;;5008153;28;20053;-44
2022/06/11 08:46:12;;;;;;;17.27;3.28;;;21.90;99.90;;;;;;5029435;28;20052;-44
2022/06/11 08:48:38;;;;;;;16.42;3.30;;;21.90;99.90;;;;;;5031005;28;20415;-44
2022/06/11 08:51:03;;;;;;;17.20;2.85;;;21.90;99.90;;;;;;5029499;28;20041;-44
2022/06/11 08:53:32;;;;;;;18.25;3.80;;;22.00;99.90;;;;;;5029414;28;20041;-45
2022/06/11 08:55:58;;;;;;;15.43;3.72;;;22.00;99.90;;;;;;5029667;28;20118;-44
2022/06/11 08:58:56;;;;;;;21.38;3.88;;;22.10;99.90;;;;;;5012687;28;20531;-44
2022/06/11 09:01:35;;;;;;;17.75;3.47;;;22.20;99.90;;;;;;5030659;28;20045;-44
2022/06/11 09:04:18;;;;;;;18.98;3.65;;;22.20;99.90;;;;;;5030576;28;20116;-45
2022/06/11 09:07:17;;;;;;;17.52;3.70;;;22.30;99.90;;;;;;5028958;28;20048;-45
2022/06/11 09:10:06;;;;;;;15.25;2.72;;;22.40;99.90;;;;;;5029160;28;20045;-46
2022/06/11 09:12:51;;;;;;;17.23;3.55;;;22.40;99.90;;;;;;5030044;28;20037;-46
2022/06/11 09:15:29;;;;;;;16.55;3.03;;;22.50;99.90;;;;;;5029061;28;20057;-47
2022/06/11 09:18:28;;;;;;;20.80;3.47;;;22.60;99.90;;;;;;5028845;28;20056;-47
2022/06/11 09:21:30;;;;;;;15.02;2.70;;;22.60;99.90;;;;;;5030246;28;20041;-47
2022/06/11 09:24:09;;;;;;;18.63;2.75;;;22.70;99.90;;;;;;4991362;28;20057;-45
2022/06/11 09:26:57;;;;;;;17.10;3.15;;;22.80;99.90;;;;;;5024411;28;20057;-48
2022/06/11 09:29:54;;;;;;;15.20;3.13;;;22.90;99.90;;;;;;5029021;28;20558;-49
2022/06/11 09:32:38;;;;;;;13.93;2.60;;;22.90;99.90;;;;;;5030235;28;20152;-49
2022/06/11 09:35:19;;;;;;;14.75;2.85;;;23.00;99.90;;;;;;5029874;28;20399;-47
2022/06/11 09:38:02;;;;;;;17.52;3.03;;;23.10;99.90;;;;;;5029844;28;20077;-48
2022/06/11 09:40:37;;;;;;;18.75;2.95;;;23.20;99.90;;;;;;5028588;28;20140;-46
2022/06/11 09:43:33;;;;;;;14.80;2.70;;;23.30;99.90;;;;;;5028002;28;20415;-47
2022/06/11 09:46:23;;;;;;;13.45;3.20;;;23.40;99.90;;;;;;5028558;28;20041;-47
2022/06/11 09:48:54;;;;;;;15.80;2.80;;;23.50;99.90;;;;;;5028503;28;20532;-48
2022/06/11 09:51:22;;;;;;;15.20;2.80;;;23.60;99.90;;;;;;5029689;28;20044;-46
2022/06/11 09:54:08;;;;;;;14.50;2.65;;;23.60;99.90;;;;;;5029752;28;20128;-47
2022/06/11 09:56:43;;;;;;;12.35;2.53;;;23.70;99.90;;;;;;5028652;28;20048;-47
2022/06/11 09:59:48;;;;;;;14.23;2.67;;;23.70;99.90;;;;;;5029378;28;20110;-47
2022/06/11 10:02:43;;;;;;;16.95;3.03;;;23.80;99.90;;;;;;5027858;28;20423;-48
2022/06/11 10:05:18;;;;;;;10.90;1.80;;;23.90;99.90;;;;;;5023705;28;20054;-47
2022/06/11 10:07:47;;;;;;;9.80;2.10;;;23.90;99.90;;;;;;5029402;28;20049;-45
2022/06/11 10:10:21;;;;;;;12.48;2.28;;;24.00;99.90;;;;;;5011778;28;20084;-47
2022/06/11 10:12:52;;;;;;;14.00;2.25;;;24.00;99.90;;;;;;5027610;28;20045;-46
2022/06/11 10:15:39;;;;;;;9.30;1.42;;;24.00;99.90;;;;;;5029605;28;20056;-47
2022/06/11 10:18:26;;;;;;;12.57;2.03;;;24.10;99.90;;;;;;5029109;28;20049;-47
2022/06/11 10:21:03;;;;;;;12.95;2.67;;;24.30;99.90;;;;;;5029320;28;20041;-47
2022/06/11 10:23:37;;;;;;;11.60;2.15;;;24.40;99.90;;;;;;5029443;28;20060;-48
2022/06/11 10:26:13;;;;;;;10.90;2.13;;;24.50;99.90;;;;;;5029325;28;20132;-46
2022/06/11 10:28:53;;;;;;;12.63;1.73;;;24.60;99.90;;;;;;5027809;28;20060;-48
2022/06/11 10:31:42;;;;;;;13.30;2.20;;;24.70;99.90;;;;;;5029343;28;20049;-48
2022/06/11 10:34:28;;;;;;;12.80;1.88;;;24.70;99.90;;;;;;5018006;28;20436;-46
2022/06/11 10:37:07;;;;;;;10.18;2.17;;;24.70;99.90;;;;;;5028148;28;20487;-47
2022/06/11 10:39:42;;;;;;;10.52;2.03;;;24.70;99.90;;;;;;5032265;28;20137;-48
2022/06/11 10:42:26;;;;;;;12.55;2.00;;;24.80;99.90;;;;;;5033529;28;20049;-49
2022/06/11 10:44:54;;;;;;;9.25;1.88;;;24.90;99.90;;;;;;5033014;28;20033;-47
2022/06/11 10:47:28;;;;;;;12.25;1.90;;;25.00;99.90;;;;;;5033142;28;20116;-47
2022/06/11 10:50:23;;;;;;;10.77;1.88;;;25.00;99.90;;;;;;5033147;28;20102;-46
2022/06/11 10:53:11;;;;;;;9.45;1.70;;;25.20;99.90;;;;;;5030188;28;20057;-47
2022/06/11 10:55:51;;;;;;;10.32;2.00;;;25.20;99.90;;;;;;5015420;28;20373;-45
2022/06/11 10:58:38;;;;;;;10.25;1.85;;;25.20;99.90;;;;;;5031398;28;20510;-46
2022/06/11 11:01:14;;;;;;;9.18;1.75;;;25.20;99.90;;;;;;5032732;28;20092;-46
2022/06/11 11:03:55;;;;;;;12.40;1.75;;;25.20;99.90;;;;;;5032523;28;20045;-48
2022/06/11 11:06:32;;;;;;;11.70;2.10;;;25.30;99.90;;;;;;5033017;28;20095;-48
2022/06/11 11:09:03;;;;;;;10.35;2.00;;;25.30;99.90;;;;;;5031406;28;20045;-46
2022/06/11 11:11:44;;;;;;;9.20;1.40;;;25.30;99.90;;;;;;5025104;28;20092;-46
2022/06/11 11:14:33;;;;;;;9.80;1.70;;;25.30;99.90;;;;;;5022999;28;20551;-49
2022/06/11 11:17:00;;;;;;;10.65;2.00;;;25.30;99.90;;;;;;5019062;28;20711;-48
2022/06/11 11:19:31;;;;;;;11.05;1.95;;;25.30;99.70;;;;;;5028616;28;20061;-48
2022/06/11 11:21:59;;;;;;;8.85;1.65;;;25.30;99.10;;;;;;5029726;28;20484;-45
2022/06/11 11:24:41;;;;;;;9.23;1.77;;;25.30;97.20;;;;;;5027234;28;20038;-46
2022/06/11 11:27:14;;;;;;;11.70;2.00;;;25.30;96.70;;;;;;5028123;28;20068;-45
2022/06/11 11:29:51;;;;;;;8.43;1.40;;;25.30;96.10;;;;;;5032973;28;20559;-46
2022/06/11 11:32:38;;;;;;;11.45;1.92;;;25.30;97.30;;;;;;5030269;28;20077;-48
2022/06/11 11:35:42;;;;;;;9.80;1.38;;;25.30;98.50;;;;;;5022192;28;20556;-47
2022/06/11 11:38:10;;;;;;;11.57;2.10;;;25.40;96.70;;;;;;5026985;28;20056;-46
2022/06/11 11:40:54;;;;;;;10.18;1.70;;;25.30;93.90;;;;;;5013846;28;20061;-45
2022/06/11 11:43:22;;;;;;;10.20;1.48;;;25.30;95.60;;;;;;5028429;28;20040;-45
2022/06/11 11:45:58;;;;;;;11.55;1.70;;;25.30;95.30;;;;;;5018503;28;20133;-45
2022/06/11 11:48:55;;;;;;;8.48;2.08;;;25.40;95.70;;;;;;5029923;28;20047;-46
2022/06/11 11:51:30;;;;;;;10.80;1.85;;;25.50;94.90;;;;;;5021026;28;20087;-44
2022/06/11 11:54:27;;;;;;;8.80;1.45;;;25.50;95.00;;;;;;5025623;28;20041;-43
2022/06/11 11:57:00;;;;;;;9.55;1.60;;;25.60;94.90;;;;;;5018612;28;20136;-44
2022/06/11 12:00:00;;;;;;;8.20;1.67;;;25.50;94.50;;;;;;5019070;28;20041;-44
2022/06/11 12:02:33;;;;;;;10.55;1.55;;;25.60;93.60;;;;;;5019207;28;20041;-44
2022/06/11 12:05:15;;;;;;;12.23;2.10;;;25.60;93.20;;;;;;5025955;28;20095;-43
2022/06/11 12:07:44;;;;;;;8.73;1.65;;;25.70;92.70;;;;;;5020477;28;20040;-45
2022/06/11 12:10:31;;;;;;;9.20;1.67;;;25.70;93.20;;;;;;5022284;28;20038;-47
2022/06/11 12:12:58;;;;;;;13.30;1.75;;;25.80;93.20;;;;;;5030761;28;20085;-47
2022/06/11 12:15:28;;;;;;;9.98;1.60;;;25.80;93.60;;;;;;5029737;28;20041;-47
2022/06/11 12:18:10;;;;;;;8.10;1.40;;;25.80;92.40;;;;;;5043828;28;20149;-47
2022/06/11 12:20:35;;;;;;;10.10;1.98;;;25.90;90.70;;;;;;5031808;28;20107;-47
2022/06/11 12:23:28;;;;;;;10.90;1.73;;;25.90;90.50;;;;;;5027447;28;20037;-46
2022/06/11 12:25:54;;;;;;;23.85;2.20;;;25.90;90.70;;;;;;5031695;28;20120;-45
2022/06/11 12:28:28;;;;;;;20.08;2.15;;;25.80;91.50;;;;;;5036717;28;20135;-45
2022/06/11 12:30:54;;;;;;;13.77;1.85;;;25.70;93.70;;;;;;5015939;28;20046;-45
2022/06/11 12:33:19;;;;;;;11.07;1.40;;;25.70;95.20;;;;;;5020058;28;20046;-45
2022/06/11 12:35:57;;;;;;;9.73;1.50;;;25.60;94.50;;;;;;5017963;28;20410;-47
2022/06/11 12:38:56;;;;;;;10.45;1.60;;;25.50;96.00;;;;;;5029135;28;20037;-46
2022/06/11 12:41:46;;;;;;;12.15;1.83;;;25.50;96.70;;;;;;5026361;28;20095;-46
2022/06/11 12:44:31;;;;;;;9.27;1.50;;;25.40;96.00;;;;;;5019485;28;20095;-44
2022/06/11 12:47:15;;;;;;;9.93;1.33;;;25.40;97.10;;;;;;5026306;28;20041;-44
2022/06/11 12:50:01;;;;;;;12.00;1.65;;;25.30;94.40;;;;;;5017909;28;20176;-48
2022/06/11 12:52:43;;;;;;;10.88;2.10;;;25.20;89.30;;;;;;5020534;28;20050;-50
2022/06/11 12:55:36;;;;;;;9.38;1.50;;;25.00;85.10;;;;;;5015497;28;20041;-49
2022/06/11 12:58:16;;;;;;;11.00;1.75;;;24.70;83.60;;;;;;5024756;28;20033;-51
2022/06/11 13:00:44;;;;;;;12.68;1.52;;;24.40;82.40;;;;;;5035008;28;20103;-47
2022/06/11 13:03:35;;;;;;;10.85;1.63;;;24.30;84.10;;;;;;5021732;28;20072;-50
2022/06/11 13:06:10;;;;;;;10.20;1.55;;;24.20;83.30;;;;;;5002331;28;20107;-49
2022/06/11 13:08:51;;;;;;;20.42;2.00;;;24.10;83.60;;;;;;5007358;28;20136;-48
2022/06/11 13:11:27;;;;;;;12.98;1.50;;;24.10;89.80;;;;;;5028833;28;20407;-50
2022/06/11 13:14:13;;;;;;;8.05;1.17;;;24.10;91.10;;;;;;5015939;28;20064;-50